Time;durP1;ratioP1;P1;durP2;ratioP2;P2;SDS_P1;SDS_P2;PMS_P1;PMS_P2;Temp;Humidity;BMP_temperature;BMP_pressure;BME280_temperature;BME280_humidity;BME280_pressure;Samples;Min_cycle;Max_cycle;Signal;HPM_P1;HPM_P2
2022/12/18 00:02:44;;;;;;;10.43;5.70;;;;;;;;;;10285280;28;20205;-63
2022/12/18 00:07:44;;;;;;;9.70;5.80;;;;;;;;;;10285363;28;20836;-63
2022/12/18 00:12:45;;;;;;;13.23;6.17;;;;;;;;;;10286266;28;20209;-63
2022/12/18 00:17:45;;;;;;;7.70;3.50;;;;;;;;;;10285080;28;20604;-64
2022/12/18 00:22:45;;;;;;;6.03;3.17;;;;;;;;;;10285251;28;20460;-63
2022/12/18 00:27:45;;;;;;;12.80;5.40;;;;;;;;;;10285474;28;20194;-63
2022/12/18 00:32:47;;;;;;;6.70;3.63;;;;;;;;;;10284632;28;20556;-63
2022/12/18 00:37:47;;;;;;;4.15;2.97;;;;;;;;;;10284936;28;21047;-64
2022/12/18 00:42:57;;;;;;;5.40;3.17;;;;;;;;;;10284284;28;20525;-64
2022/12/18 00:47:57;;;;;;;8.57;4.33;;;;;;;;;;10283792;28;20950;-64
2022/12/18 00:52:57;;;;;;;6.83;3.67;;;;;;;;;;10284532;28;20253;-63
2022/12/18 00:57:57;;;;;;;11.67;4.80;;;;;;;;;;10283450;28;20233;-61
2022/12/18 01:02:58;;;;;;;6.83;3.53;;;;;;;;;;10283824;28;20454;-63
2022/12/18 01:07:58;;;;;;;6.50;3.60;;;;;;;;;;10266729;28;20457;-62
2022/12/18 01:12:59;;;;;;;7.55;4.57;;;;;;;;;;10265931;28;20230;-60
2022/12/18 01:17:59;;;;;;;8.50;4.13;;;;;;;;;;10283829;28;20217;-63
2022/12/18 01:23:00;;;;;;;5.00;3.10;;;;;;;;;;10282834;28;20455;-61
2022/12/18 01:28:01;;;;;;;8.33;3.60;;;;;;;;;;10282631;28;20193;-64
2022/12/18 01:33:03;;;;;;;5.73;3.20;;;;;;;;;;10266309;28;20216;-63
2022/12/18 01:38:04;;;;;;;7.10;2.93;;;;;;;;;;10282983;28;20225;-61
2022/12/18 01:43:05;;;;;;;3.83;2.93;;;;;;;;;;10288729;28;20749;-62
2022/12/18 01:48:06;;;;;;;6.93;2.95;;;;;;;;;;10290673;28;20201;-61
2022/12/18 01:53:12;;;;;;;5.63;3.10;;;;;;;;;;10249595;28;20241;-63
2022/12/18 01:58:12;;;;;;;8.13;4.33;;;;;;;;;;10249747;28;20217;-61
2022/12/18 02:03:13;;;;;;;6.47;2.07;;;;;;;;;;10249791;28;20578;-60
2022/12/18 02:08:21;;;;;;;10.20;4.50;;;;;;;;;;10249987;28;20185;-61
2022/12/18 02:13:31;;;;;;;7.07;3.80;;;;;;;;;;10249284;28;20566;-61
2022/12/18 02:18:36;;;;;;;4.20;2.40;;;;;;;;;;10248195;28;20217;-61
2022/12/18 02:23:37;;;;;;;6.23;3.90;;;;;;;;;;10249035;28;20212;-61
2022/12/18 02:28:42;;;;;;;7.20;3.00;;;;;;;;;;10248039;28;20181;-61
2022/12/18 02:33:44;;;;;;;7.13;4.13;;;;;;;;;;10248588;28;20240;-62
2022/12/18 02:38:45;;;;;;;13.53;3.90;;;;;;;;;;10247868;29;20225;-61
2022/12/18 02:43:48;;;;;;;5.13;2.60;;;;;;;;;;10247450;29;20238;-60
2022/12/18 02:48:49;;;;;;;9.30;4.10;;;;;;;;;;10248734;28;20188;-61
2022/12/18 02:54:03;;;;;;;6.57;2.77;;;;;;;;;;10270455;28;20244;-62
2022/12/18 02:59:21;;;;;;;4.43;2.33;;;;;;;;;;10288684;28;20271;-60
2022/12/18 03:04:28;;;;;;;3.07;2.13;;;;;;;;;;10287626;28;20611;-62
2022/12/18 03:09:32;;;;;;;3.00;2.20;;;;;;;;;;10268989;28;20312;-60
2022/12/18 03:14:33;;;;;;;3.40;2.00;;;;;;;;;;10285677;28;20786;-59
2022/12/18 03:19:34;;;;;;;7.13;2.90;;;;;;;;;;10286702;28;20598;-63
2022/12/18 03:24:39;;;;;;;2.27;2.03;;;;;;;;;;10268451;28;20707;-60
2022/12/18 03:29:53;;;;;;;3.87;2.63;;;;;;;;;;10269240;28;20247;-62
2022/12/18 03:35:01;;;;;;;5.00;2.53;;;;;;;;;;10284992;28;20219;-60
2022/12/18 03:40:05;;;;;;;1.70;1.47;;;;;;;;;;10269196;28;20283;-61
2022/12/18 03:45:19;;;;;;;5.60;2.40;;;;;;;;;;10267793;28;20666;-61
2022/12/18 03:50:26;;;;;;;8.17;3.03;;;;;;;;;;10286319;28;20269;-63
2022/12/18 03:55:27;;;;;;;9.60;3.90;;;;;;;;;;10283926;28;20563;-63
2022/12/18 04:00:33;;;;;;;7.93;4.80;;;;;;;;;;10268698;28;20280;-63
2022/12/18 04:05:42;;;;;;;6.03;3.00;;;;;;;;;;10277230;28;20222;-62
2022/12/18 04:10:42;;;;;;;4.77;2.40;;;;;;;;;;10260745;28;20214;-63
2022/12/18 04:15:43;;;;;;;3.80;2.43;;;;;;;;;;10261092;28;20283;-63
2022/12/18 04:20:47;;;;;;;7.17;3.80;;;;;;;;;;10260322;28;20252;-61
2022/12/18 04:25:48;;;;;;;6.57;4.17;;;;;;;;;;10260242;28;20205;-62
2022/12/18 04:30:56;;;;;;;9.40;3.20;;;;;;;;;;10261043;28;20210;-62
2022/12/18 04:35:56;;;;;;;10.13;3.05;;;;;;;;;;10260146;28;20186;-62
2022/12/18 04:40:57;;;;;;;5.43;3.10;;;;;;;;;;10260894;28;20217;-61
2022/12/18 04:46:04;;;;;;;8.80;4.20;;;;;;;;;;10260426;28;20672;-61
2022/12/18 04:51:05;;;;;;;9.23;4.47;;;;;;;;;;10277400;28;20241;-61
2022/12/18 04:56:06;;;;;;;11.77;4.30;;;;;;;;;;10277410;28;20201;-62
2022/12/18 05:01:09;;;;;;;11.40;5.03;;;;;;;;;;10278233;28;20271;-61
2022/12/18 05:06:10;;;;;;;11.73;4.93;;;;;;;;;;10283690;28;20252;-61
2022/12/18 05:11:11;;;;;;;8.90;4.45;;;;;;;;;;10284530;28;20279;-62
2022/12/18 05:16:12;;;;;;;11.23;4.70;;;;;;;;;;10287044;28;20584;-62
2022/12/18 05:21:12;;;;;;;7.53;4.43;;;;;;;;;;10292048;28;20233;-62
2022/12/18 05:26:17;;;;;;;8.67;3.43;;;;;;;;;;10291462;28;20291;-62
2022/12/18 05:31:17;;;;;;;8.43;4.17;;;;;;;;;;10292419;28;20539;-63
2022/12/18 05:36:17;;;;;;;8.03;4.03;;;;;;;;;;10291434;28;20657;-62
2022/12/18 05:41:18;;;;;;;10.23;4.63;;;;;;;;;;10292196;28;20495;-63
2022/12/18 05:46:18;;;;;;;12.25;5.15;;;;;;;;;;10291575;28;20448;-62
2022/12/18 05:51:20;;;;;;;3.17;2.87;;;;;;;;;;10291230;28;20249;-62
2022/12/18 05:56:21;;;;;;;7.60;4.23;;;;;;;;;;10289662;28;20202;-63
2022/12/18 06:06:32;;;;;;;7.40;4.50;;;;;;;;;;10451310;28;20227;-63
2022/12/18 06:11:32;;;;;;;9.00;5.10;;;;;;;;;;10454137;28;20203;-62
2022/12/18 06:16:33;;;;;;;9.00;4.53;;;;;;;;;;10453451;28;20430;-61
2022/12/18 06:21:33;;;;;;;14.63;5.78;;;;;;;;;;10453234;28;20480;-62
2022/12/18 06:26:34;;;;;;;7.23;3.90;;;;;;;;;;10451634;28;20205;-61
2022/12/18 06:31:34;;;;;;;10.13;5.07;;;;;;;;;;10452851;28;20214;-61
2022/12/18 06:36:34;;;;;;;11.88;6.63;;;;;;;;;;10452870;28;20195;-61
2022/12/18 06:41:34;;;;;;;7.83;4.13;;;;;;;;;;10453099;28;20211;-62
2022/12/18 06:46:34;;;;;;;5.23;2.87;;;;;;;;;;10451743;28;20802;-62
2022/12/18 06:51:35;;;;;;;8.93;4.57;;;;;;;;;;10449496;28;20975;-62
2022/12/18 06:56:35;;;;;;;13.37;5.13;;;;;;;;;;10452266;28;20199;-61
2022/12/18 07:01:35;;;;;;;12.50;6.07;;;;;;;;;;10451128;28;20333;-63
2022/12/18 07:06:36;;;;;;;7.77;3.97;;;;;;;;;;10452209;28;20512;-62
2022/12/18 07:11:36;;;;;;;11.70;4.60;;;;;;;;;;10451508;28;21291;-63
2022/12/18 07:16:36;;;;;;;19.40;9.43;;;;;;;;;;10450964;28;20533;-63
2022/12/18 07:21:36;;;;;;;10.30;5.63;;;;;;;;;;10451292;28;20285;-61
2022/12/18 07:26:37;;;;;;;22.33;10.90;;;;;;;;;;10450020;28;20449;-60
2022/12/18 07:31:37;;;;;;;18.27;8.20;;;;;;;;;;10451226;28;20459;-60
2022/12/18 07:36:37;;;;;;;77.43;25.33;;;;;;;;;;10449997;28;20197;-58
2022/12/18 07:41:37;;;;;;;55.60;22.13;;;;;;;;;;10449305;28;20697;-61
2022/12/18 07:46:42;;;;;;;23.47;10.13;;;;;;;;;;10431528;28;20445;-59
2022/12/18 07:51:45;;;;;;;40.30;19.93;;;;;;;;;;10450115;28;20222;-57
2022/12/18 07:56:46;;;;;;;27.30;14.23;;;;;;;;;;10449219;28;20438;-60
2022/12/18 08:01:46;;;;;;;13.73;6.80;;;;;;;;;;10448706;28;20228;-60
2022/12/18 08:06:46;;;;;;;13.20;6.03;;;;;;;;;;10447835;28;20199;-59
2022/12/18 08:11:46;;;;;;;16.47;6.97;;;;;;;;;;10436090;28;21589;-61
2022/12/18 08:16:47;;;;;;;19.70;7.77;;;;;;;;;;10408654;28;20298;-63
2022/12/18 08:21:47;;;;;;;15.77;6.93;;;;;;;;;;10407303;28;20854;-63
2022/12/18 08:26:47;;;;;;;20.60;8.33;;;;;;;;;;10405741;28;20284;-64
2022/12/18 08:31:47;;;;;;;23.93;11.47;;;;;;;;;;10407605;28;20455;-61
2022/12/18 08:36:48;;;;;;;18.80;10.83;;;;;;;;;;10407439;28;20475;-61
2022/12/18 08:44:37;;;;;;;17.50;8.73;;;;;;;;;;10407357;28;20281;-64
2022/12/18 08:47:08;;;;;;;10.90;6.43;;;;;;;;;;10409237;28;20238;-64
2022/12/18 08:52:09;;;;;;;14.52;8.05;;;;;;;;;;10408643;28;20238;-63
2022/12/18 08:57:09;;;;;;;15.80;6.47;;;;;;;;;;10405711;28;20179;-65
2022/12/18 09:02:10;;;;;;;16.10;7.60;;;;;;;;;;10406852;28;20716;-64
2022/12/18 09:07:11;;;;;;;12.97;5.83;;;;;;;;;;10406480;28;20211;-63
2022/12/18 09:12:11;;;;;;;14.37;6.67;;;;;;;;;;10405214;28;20291;-63
2022/12/18 09:17:11;;;;;;;10.80;5.80;;;;;;;;;;10404530;28;20211;-62
2022/12/18 09:22:11;;;;;;;15.65;8.13;;;;;;;;;;10404838;28;20211;-64
2022/12/18 09:27:11;;;;;;;18.20;7.23;;;;;;;;;;10404281;28;20196;-62
2022/12/18 09:32:12;;;;;;;14.83;6.43;;;;;;;;;;10405962;28;20205;-64
2022/12/18 09:37:12;;;;;;;16.73;7.97;;;;;;;;;;10405832;28;20203;-63
2022/12/18 09:42:17;;;;;;;10.10;4.43;;;;;;;;;;10405506;28;20199;-63
2022/12/18 09:47:24;;;;;;;9.13;6.27;;;;;;;;;;10406054;28;20192;-63
2022/12/18 09:52:29;;;;;;;13.47;6.83;;;;;;;;;;10420245;28;20212;-65
2022/12/18 09:57:32;;;;;;;11.97;6.23;;;;;;;;;;10422861;28;20233;-64
2022/12/18 10:02:32;;;;;;;6.73;4.07;;;;;;;;;;10440447;28;20232;-66
2022/12/18 10:07:46;;;;;;;14.40;7.53;;;;;;;;;;10454272;28;20275;-67
2022/12/18 10:13:02;;;;;;;17.43;7.23;;;;;;;;;;10453724;28;20212;-65
2022/12/18 10:18:02;;;;;;;11.63;6.17;;;;;;;;;;10454085;28;20690;-65
2022/12/18 10:23:11;;;;;;;11.00;6.50;;;;;;;;;;10451553;28;20218;-65
2022/12/18 10:28:16;;;;;;;12.80;6.50;;;;;;;;;;10447137;28;20188;-66
2022/12/18 10:33:19;;;;;;;11.00;5.57;;;;;;;;;;10452726;28;20208;-65
2022/12/18 10:38:24;;;;;;;8.20;4.13;;;;;;;;;;10451558;28;20214;-66
2022/12/18 10:43:29;;;;;;;8.30;4.80;;;;;;;;;;10451954;28;20701;-66
2022/12/18 10:48:30;;;;;;;8.57;4.27;;;;;;;;;;10451564;28;20215;-63
2022/12/18 10:53:31;;;;;;;7.53;3.83;;;;;;;;;;10451421;28;20214;-62
2022/12/18 10:58:33;;;;;;;7.03;3.70;;;;;;;;;;10451395;28;20215;-62
2022/12/18 11:03:53;;;;;;;7.43;3.83;;;;;;;;;;10450924;28;20338;-60
2022/12/18 11:09:01;;;;;;;4.67;3.27;;;;;;;;;;10432810;28;20205;-62
2022/12/18 11:14:03;;;;;;;3.87;2.37;;;;;;;;;;10450728;28;20690;-64
2022/12/18 11:19:13;;;;;;;6.07;3.73;;;;;;;;;;10450482;28;20221;-64
2022/12/18 11:24:21;;;;;;;7.53;3.93;;;;;;;;;;10450233;28;20187;-65
2022/12/18 11:29:29;;;;;;;6.37;3.57;;;;;;;;;;10450158;28;20586;-61
2022/12/18 11:34:31;;;;;;;5.80;3.57;;;;;;;;;;10449495;28;20888;-62
2022/12/18 11:39:40;;;;;;;8.40;3.87;;;;;;;;;;10449471;28;20224;-64
2022/12/18 11:44:44;;;;;;;4.50;2.60;;;;;;;;;;10449375;28;20269;-63
2022/12/18 11:49:47;;;;;;;4.20;2.57;;;;;;;;;;10448597;28;20212;-59
2022/12/18 11:54:50;;;;;;;6.13;3.47;;;;;;;;;;10449201;28;20184;-63
2022/12/18 12:00:01;;;;;;;5.80;3.70;;;;;;;;;;10472237;23;20219;-60
2022/12/18 12:05:30;;;;;;;5.17;3.40;;;;;;;;;;10404232;28;20582;-59
2022/12/18 12:10:30;;;;;;;5.50;3.33;;;;;;;;;;10319586;28;20220;-60
2022/12/18 12:15:39;;;;;;;8.70;2.87;;;;;;;;;;10406580;28;20231;-60
2022/12/18 12:20:45;;;;;;;4.63;3.13;;;;;;;;;;10406491;28;20233;-63
2022/12/18 12:25:47;;;;;;;8.80;5.57;;;;;;;;;;10401504;28;20268;-61
2022/12/18 12:31:08;;;;;;;4.67;2.33;;;;;;;;;;10401729;28;20208;-59
2022/12/18 12:36:09;;;;;;;6.20;3.93;;;;;;;;;;10405319;28;20204;-57
2022/12/18 12:43:12;;;;;;;5.33;3.47;;;;;;;;;;10405123;28;20224;-58
2022/12/18 12:46:33;;;;;;;7.20;3.73;;;;;;;;;;10405698;28;20189;-62
2022/12/18 12:51:33;;;;;;;9.20;3.83;;;;;;;;;;10405842;28;20208;-60
2022/12/18 12:56:45;;;;;;;6.60;3.83;;;;;;;;;;10405691;28;20677;-63
2022/12/18 13:01:54;;;;;;;7.50;3.57;;;;;;;;;;10405308;28;20239;-64
2022/12/18 13:07:13;;;;;;;9.67;4.57;;;;;;;;;;10405081;28;20191;-64
2022/12/18 13:17:34;;;;;;;8.50;4.10;;;;;;;;;;10404875;28;20231;-64
2022/12/18 13:22:40;;;;;;;7.33;4.17;;;;;;;;;;10404948;28;20219;-65
2022/12/18 13:27:44;;;;;;;7.63;4.40;;;;;;;;;;10405369;28;20485;-64
2022/12/18 13:32:44;;;;;;;12.40;3.77;;;;;;;;;;10404770;28;20283;-63
2022/12/18 13:37:51;;;;;;;7.57;5.03;;;;;;;;;;10409059;28;20689;-65
2022/12/18 13:48:15;;;;;;;7.63;4.17;;;;;;;;;;10412837;28;20591;-64
2022/12/18 13:53:24;;;;;;;5.63;2.97;;;;;;;;;;10412472;28;20230;-65
2022/12/18 13:58:24;;;;;;;3.97;2.30;;;;;;;;;;10411867;28;20222;-65
2022/12/18 14:03:26;;;;;;;4.13;2.63;;;;;;;;;;10412196;28;20223;-65
2022/12/18 14:08:30;;;;;;;6.87;3.17;;;;;;;;;;10410969;28;20189;-64
2022/12/18 14:13:33;;;;;;;21.43;9.73;;;;;;;;;;10411631;28;20250;-65
2022/12/18 14:18:38;;;;;;;38.47;17.50;;;;;;;;;;10411109;28;20220;-65
2022/12/18 14:23:40;;;;;;;44.93;20.50;;;;;;;;;;10411385;28;20653;-65
2022/12/18 14:28:44;;;;;;;44.47;22.03;;;;;;;;;;10410518;28;20194;-65
2022/12/18 14:33:44;;;;;;;24.73;14.73;;;;;;;;;;10410635;28;20660;-65
2022/12/18 14:38:48;;;;;;;14.37;6.10;;;;;;;;;;10410420;28;20309;-65
2022/12/18 14:43:49;;;;;;;11.47;5.20;;;;;;;;;;10409710;28;20710;-64
2022/12/18 14:48:49;;;;;;;12.50;5.60;;;;;;;;;;10409813;28;20207;-64
2022/12/18 14:53:54;;;;;;;8.60;4.40;;;;;;;;;;10409658;28;20305;-64
2022/12/18 14:59:03;;;;;;;9.70;4.00;;;;;;;;;;10409707;28;20480;-64
2022/12/18 15:04:04;;;;;;;9.60;5.23;;;;;;;;;;10409333;28;20240;-64
2022/12/18 15:09:25;;;;;;;12.10;5.30;;;;;;;;;;10409824;28;20189;-63
2022/12/18 15:14:39;;;;;;;9.13;4.20;;;;;;;;;;10406725;28;20295;-63
2022/12/18 15:19:40;;;;;;;10.83;5.20;;;;;;;;;;10409615;28;20275;-63
2022/12/18 15:24:40;;;;;;;15.73;7.07;;;;;;;;;;10409009;28;20757;-63
2022/12/18 15:29:41;;;;;;;11.93;6.07;;;;;;;;;;10408121;28;20202;-62
2022/12/18 15:34:41;;;;;;;10.90;5.28;;;;;;;;;;10408816;28;21326;-63
2022/12/18 15:39:41;;;;;;;10.03;4.80;;;;;;;;;;10408119;28;20216;-63
2022/12/18 15:44:43;;;;;;;10.60;5.10;;;;;;;;;;10407500;28;20202;-62
2022/12/18 15:49:43;;;;;;;9.03;4.23;;;;;;;;;;10407719;28;20302;-64
2022/12/18 16:00:02;;;;;;;6.77;3.30;;;;;;;;;;10405920;28;20724;-64
2022/12/18 16:05:13;;;;;;;9.10;3.80;;;;;;;;;;10407495;28;20251;-63
2022/12/18 16:10:13;;;;;;;13.27;6.03;;;;;;;;;;10406955;28;20236;-64
2022/12/18 16:15:15;;;;;;;12.80;5.33;;;;;;;;;;10406592;28;20547;-64
2022/12/18 16:20:16;;;;;;;6.73;3.33;;;;;;;;;;10407108;28;20231;-64
2022/12/18 16:25:24;;;;;;;9.30;4.77;;;;;;;;;;10406502;28;20209;-64
2022/12/18 16:30:27;;;;;;;8.87;4.57;;;;;;;;;;10406260;28;20222;-63
2022/12/18 16:35:27;;;;;;;10.07;4.80;;;;;;;;;;10405973;28;20191;-63
2022/12/18 16:40:30;;;;;;;14.00;5.10;;;;;;;;;;10406010;28;20710;-63
2022/12/18 16:45:32;;;;;;;8.47;4.43;;;;;;;;;;10405084;28;20438;-63
2022/12/18 16:50:33;;;;;;;15.27;7.00;;;;;;;;;;10406412;28;20208;-61
2022/12/18 16:55:33;;;;;;;12.80;5.80;;;;;;;;;;10405212;28;20674;-62
2022/12/18 17:00:33;;;;;;;11.73;5.90;;;;;;;;;;10405994;28;20227;-63
2022/12/18 17:05:33;;;;;;;6.60;3.63;;;;;;;;;;10405234;28;20341;-62
2022/12/18 17:10:34;;;;;;;10.00;3.73;;;;;;;;;;10408870;28;20227;-62
2022/12/18 17:15:35;;;;;;;4.70;3.30;;;;;;;;;;10419135;28;20430;-62
2022/12/18 17:20:35;;;;;;;5.03;2.80;;;;;;;;;;10418932;28;20740;-62
2022/12/18 17:25:38;;;;;;;11.77;5.33;;;;;;;;;;10418336;28;20560;-63
2022/12/18 17:30:38;;;;;;;8.60;4.03;;;;;;;;;;10418825;28;20215;-63
2022/12/18 17:35:39;;;;;;;6.68;3.65;;;;;;;;;;10418270;28;20682;-61
2022/12/18 17:40:42;;;;;;;5.40;3.20;;;;;;;;;;10417980;28;20239;-63
2022/12/18 17:45:42;;;;;;;4.97;2.97;;;;;;;;;;10417913;28;20849;-62
2022/12/18 17:50:43;;;;;;;6.60;3.70;;;;;;;;;;10417699;28;20367;-62
2022/12/18 17:55:43;;;;;;;9.23;3.37;;;;;;;;;;10415974;28;20675;-63
2022/12/18 18:00:43;;;;;;;3.53;2.20;;;;;;;;;;10448841;23;20327;-62
2022/12/18 18:05:43;;;;;;;4.23;2.90;;;;;;;;;;10417497;28;20288;-61
2022/12/18 18:10:43;;;;;;;4.37;2.13;;;;;;;;;;10418321;28;20211;-63
2022/12/18 18:15:44;;;;;;;4.88;2.83;;;;;;;;;;10417507;28;20800;-64
2022/12/18 18:20:44;;;;;;;5.80;2.80;;;;;;;;;;10417324;28;20231;-63
2022/12/18 18:25:45;;;;;;;4.30;2.00;;;;;;;;;;10409734;28;20189;-64
2022/12/18 18:30:45;;;;;;;7.33;3.30;;;;;;;;;;10410923;28;20766;-64
2022/12/18 18:35:45;;;;;;;2.90;1.70;;;;;;;;;;10410900;28;20188;-64
2022/12/18 18:40:46;;;;;;;5.07;2.53;;;;;;;;;;10410025;28;20606;-63
2022/12/18 18:45:46;;;;;;;2.50;2.00;;;;;;;;;;10411074;28;20180;-64
2022/12/18 18:50:59;;;;;;;4.20;1.50;;;;;;;;;;10410199;28;20240;-64
2022/12/18 18:56:00;;;;;;;3.43;1.67;;;;;;;;;;10410382;28;20188;-64
2022/12/18 19:01:04;;;;;;;4.67;2.10;;;;;;;;;;10410433;28;20601;-63
2022/12/18 19:06:05;;;;;;;3.33;2.20;;;;;;;;;;10409090;28;20430;-63
2022/12/18 19:13:19;;;;;;;4.80;2.10;;;;;;;;;;10409769;28;20208;-63
2022/12/18 19:16:30;;;;;;;3.00;2.03;;;;;;;;;;10408637;28;20236;-64
2022/12/18 19:21:31;;;;;;;5.30;2.17;;;;;;;;;;10409461;28;20363;-64
2022/12/18 19:26:31;;;;;;;3.27;1.90;;;;;;;;;;10409321;28;20366;-63
2022/12/18 19:31:32;;;;;;;2.43;1.53;;;;;;;;;;10409628;28;20200;-63
2022/12/18 19:36:33;;;;;;;5.10;2.03;;;;;;;;;;10406995;28;20541;-64
2022/12/18 19:41:33;;;;;;;2.67;1.40;;;;;;;;;;10408729;28;20591;-64
2022/12/18 19:46:34;;;;;;;5.07;2.23;;;;;;;;;;10408992;28;20193;-62
2022/12/18 19:51:34;;;;;;;3.37;1.93;;;;;;;;;;10407983;28;20221;-64
2022/12/18 19:56:34;;;;;;;1.47;1.20;;;;;;;;;;10408496;28;20192;-62
2022/12/18 20:01:35;;;;;;;3.53;2.22;;;;;;;;;;10407811;28;20490;-62
2022/12/18 20:06:44;;;;;;;4.40;1.90;;;;;;;;;;10407506;28;20189;-63
2022/12/18 20:11:45;;;;;;;4.20;2.20;;;;;;;;;;10408138;28;20443;-65
2022/12/18 20:16:45;;;;;;;3.03;2.30;;;;;;;;;;10407330;28;20197;-63
2022/12/18 20:21:46;;;;;;;4.00;2.20;;;;;;;;;;10406814;28;20229;-65
2022/12/18 20:26:46;;;;;;;2.77;1.90;;;;;;;;;;10407356;28;20548;-64
2022/12/18 20:31:46;;;;;;;2.57;2.10;;;;;;;;;;10407151;28;20731;-64
2022/12/18 20:36:46;;;;;;;4.40;2.37;;;;;;;;;;10405062;28;20960;-64
2022/12/18 20:41:47;;;;;;;3.60;2.13;;;;;;;;;;10404043;28;20498;-64
2022/12/18 20:46:47;;;;;;;3.63;2.33;;;;;;;;;;10402818;28;20960;-63
2022/12/18 20:51:51;;;;;;;3.90;2.43;;;;;;;;;;10404201;28;20286;-62
2022/12/18 20:56:51;;;;;;;4.53;2.63;;;;;;;;;;10405029;28;20615;-64
2022/12/18 21:01:52;;;;;;;3.87;2.50;;;;;;;;;;10405057;28;20247;-64
2022/12/18 21:06:53;;;;;;;6.45;2.50;;;;;;;;;;10406396;28;20180;-63
2022/12/18 21:17:12;;;;;;;4.57;2.40;;;;;;;;;;10403576;28;20216;-65
2022/12/18 21:22:12;;;;;;;4.33;2.47;;;;;;;;;;10405270;28;20320;-65
2022/12/18 21:27:13;;;;;;;4.27;2.73;;;;;;;;;;10405351;28;20188;-63
2022/12/18 21:32:13;;;;;;;3.97;2.20;;;;;;;;;;10405292;28;20591;-63
2022/12/18 21:37:13;;;;;;;3.35;1.83;;;;;;;;;;10404921;28;20682;-65
2022/12/18 21:47:32;;;;;;;3.50;2.20;;;;;;;;;;10404995;28;20457;-65
2022/12/18 21:52:32;;;;;;;3.20;2.33;;;;;;;;;;10404736;28;20210;-65
2022/12/18 21:57:32;;;;;;;5.97;3.47;;;;;;;;;;10406616;28;20434;-65
2022/12/18 22:02:33;;;;;;;3.10;1.33;;;;;;;;;;10411732;28;20286;-63
2022/12/18 22:07:33;;;;;;;3.87;2.60;;;;;;;;;;10413455;28;20184;-64
2022/12/18 22:12:36;;;;;;;4.43;2.47;;;;;;;;;;10413302;28;21104;-65
2022/12/18 22:17:36;;;;;;;3.70;2.40;;;;;;;;;;10412141;28;20682;-64
2022/12/18 22:22:37;;;;;;;4.57;2.33;;;;;;;;;;10413368;28;20220;-65
2022/12/18 22:27:37;;;;;;;4.13;2.47;;;;;;;;;;10412310;28;20184;-65
2022/12/18 22:32:37;;;;;;;7.07;4.50;;;;;;;;;;10412171;28;20217;-63
2022/12/18 22:37:37;;;;;;;8.50;4.13;;;;;;;;;;10412494;28;20193;-65
2022/12/18 22:42:38;;;;;;;10.77;3.80;;;;;;;;;;10411424;28;20596;-62
2022/12/18 22:47:38;;;;;;;4.50;2.67;;;;;;;;;;10412080;28;20205;-65
2022/12/18 22:52:38;;;;;;;8.57;4.13;;;;;;;;;;10411661;28;20213;-65
2022/12/18 22:57:39;;;;;;;4.17;2.87;;;;;;;;;;10411248;28;20192;-64
2022/12/18 23:02:39;;;;;;;8.70;4.23;;;;;;;;;;10410909;28;20924;-63
2022/12/18 23:07:39;;;;;;;6.53;3.47;;;;;;;;;;10411097;28;20184;-64
2022/12/18 23:12:39;;;;;;;7.43;3.73;;;;;;;;;;10410160;28;20593;-64
2022/12/18 23:17:40;;;;;;;8.40;4.07;;;;;;;;;;10410299;28;20181;-64
2022/12/18 23:22:40;;;;;;;5.60;3.20;;;;;;;;;;10410789;28;20571;-65
2022/12/18 23:27:40;;;;;;;8.97;4.33;;;;;;;;;;10409589;28;20598;-64
2022/12/18 23:32:40;;;;;;;9.73;5.07;;;;;;;;;;10410335;28;20209;-65
2022/12/18 23:37:41;;;;;;;8.67;5.23;;;;;;;;;;10409447;28;20195;-62
2022/12/18 23:42:41;;;;;;;8.67;4.27;;;;;;;;;;10408544;28;20721;-63
2022/12/18 23:47:41;;;;;;;9.60;5.13;;;;;;;;;;10408861;28;20184;-64
2022/12/18 23:52:41;;;;;;;11.27;4.63;;;;;;;;;;10406858;28;20502;-65
2022/12/18 23:57:42;;;;;;;9.60;4.93;;;;;;;;;;10408454;28;20431;-63
